Startpagina
METAR-TAF:

METAR-TAF

Vliegvelden :

Bucaramanga, Colombia

breedte: 07-06N, lengte: 073-12W, hoogte: 1189 m

Actueel weer

Dit bericht is 11 uur en het 48 minuten geleden gemaakt, om 23:00 UTC
Wind 7 kt uit het noorden
Temperatuur 24°C
Vochtigheid 78%
Druk 1014 hPa
Zicht 10 km of meer
Verspreide wolken op 1000 ft
Verspreide wolken op 7000 ft

METAR: SKBG 082300Z 35007KT 9999 SCT010 SCT070 24/20 A2994

Tijdstip: 05:48 (10:48 UTC)

Verwachting

Dit bericht is 6 uur en het 18 minuten geleden gemaakt, om 04:30 UTC
Verwachting geldig van 09 om 06 UTC tot 10 om 06 UTC
Wind 2 kt uit variabele richting
Zicht 10 km of meer
Weinig wolken op 1200 ft
Verspreide wolken op 8000 ft
Wijzigt naar
van 09 om 15 UTC tot 09 om 17 UTC
Wind 8 kt uit het noordwesten
Wijzigt naar
van 10 om 00 UTC tot 10 om 02 UTC
Wind 2 kt uit variabele richting

TAF: SKBG 090430Z 0906/1006 VRB02KT 9999 FEW012 SCT080 BECMG 0915/0917 32008KT BECMG 1000/1002 VRB02KT TX27/0919Z TN19/0911Z

Waarnemingen en weersverwachtingen van meer dan 4000 vliegvelden (METAR en TAF).

De beschikbare stations zijn de gele en rode punten op de kaart.

Ga met uw muis naar het station om de naam te zien.

Klik dan om waarnemingen en weersverwachtingen te zien.

kaart wijzigen: klik op de groene knoppen met een zwart kruis om in te zoomen, op de groene knop met een streepje om uit te zoomen of op de groene pijlen voor aangrenzende kaarten.


METAR-TAF: